Time;durP1;ratioP1;P1;durP2;ratioP2;P2;SDS_P1;SDS_P2;PMS_P1;PMS_P2;Temp;Humidity;BMP_temperature;BMP_pressure;BME280_temperature;BME280_humidity;BME280_pressure;Samples;Min_cycle;Max_cycle;Signal;HPM_P1;HPM_P2
2022/06/05 00:01:23;;;;;;;7.57;3.33;;;17.20;99.90;18.60;97126.00;;;;5036810;28;20244;-84
2022/06/05 00:04:27;;;;;;;4.73;3.07;;;17.20;99.90;18.50;97129.00;;;;5028715;28;20233;-85
2022/06/05 00:07:26;;;;;;;13.60;4.00;;;17.20;99.90;18.50;97128.00;;;;5030416;28;20203;-84
2022/06/05 00:10:22;;;;;;;6.87;4.07;;;17.20;99.90;18.40;97127.00;;;;5033686;28;20603;-85
2022/06/05 00:13:20;;;;;;;5.77;3.80;;;17.20;99.90;18.40;97132.00;;;;5027621;28;20198;-84
2022/06/05 00:16:10;;;;;;;4.83;4.33;;;17.10;99.90;18.30;97132.00;;;;5032603;28;20229;-84
2022/06/05 00:18:59;;;;;;;5.43;3.97;;;17.10;99.90;18.40;97134.00;;;;5036455;28;20205;-83
2022/06/05 00:21:49;;;;;;;5.40;3.77;;;17.10;99.90;18.50;97128.00;;;;5033064;28;20571;-84
2022/06/05 00:24:38;;;;;;;6.50;3.63;;;17.10;99.90;18.50;97125.00;;;;5031796;28;20699;-84
2022/06/05 00:27:36;;;;;;;6.13;3.60;;;17.10;99.90;18.50;97129.00;;;;5035239;28;20204;-84
2022/06/05 00:30:33;;;;;;;4.33;3.30;;;17.10;99.90;18.50;97132.00;;;;5033522;28;20209;-85
2022/06/05 00:33:32;;;;;;;4.67;4.03;;;17.00;99.90;18.50;97135.00;;;;5036992;28;20200;-85
2022/06/05 00:36:47;;;;;;;4.37;3.33;;;17.00;99.90;18.50;97133.00;;;;5033076;28;20213;-84
2022/06/05 00:39:44;;;;;;;3.17;2.90;;;17.00;99.90;18.50;97125.00;;;;5035481;28;20201;-84
2022/06/05 00:42:34;;;;;;;3.23;2.70;;;17.00;99.90;18.50;97127.00;;;;5031856;28;20193;-84
2022/06/05 00:45:25;;;;;;;3.90;3.13;;;17.10;99.90;18.60;97124.00;;;;5033540;28;20209;-84
2022/06/05 00:48:14;;;;;;;4.50;3.73;;;17.10;99.90;18.50;97119.00;;;;5031053;28;20229;-83
2022/06/05 00:51:04;;;;;;;4.13;3.77;;;17.20;99.90;18.30;97108.00;;;;5031405;28;20205;-84
2022/06/05 00:53:53;;;;;;;4.60;3.43;;;17.00;99.90;18.20;97100.00;;;;5028029;28;20209;-84
2022/06/05 00:56:42;;;;;;;5.30;3.80;;;17.20;99.90;18.20;97110.00;;;;5025761;28;20671;-84
2022/06/05 00:59:31;;;;;;;4.87;3.47;;;17.10;99.90;18.00;97112.00;;;;5031640;28;20228;-84
2022/06/05 01:02:21;;;;;;;12.87;3.87;;;17.00;99.90;18.00;97106.00;;;;5031211;28;20212;-83
2022/06/05 01:05:14;;;;;;;3.93;3.63;;;16.90;99.90;18.10;97103.00;;;;5030914;28;20209;-83
2022/06/05 01:08:04;;;;;;;5.13;3.23;;;16.90;99.90;18.20;97104.00;;;;5029905;28;20201;-85
2022/06/05 01:10:59;;;;;;;4.20;3.70;;;;;18.30;97099.00;;;;5036266;28;20652;-84
2022/06/05 01:13:58;;;;;;;4.67;4.00;;;;;18.40;97104.00;;;;5031487;28;20209;-84
2022/06/05 01:16:56;;;;;;;5.10;3.77;;;17.00;99.90;18.10;97098.00;;;;5035147;28;20200;-84
2022/06/05 01:19:51;;;;;;;5.43;4.37;;;17.00;99.90;17.80;97101.00;;;;5029060;28;20208;-84
2022/06/05 01:23:09;;;;;;;5.57;4.03;;;16.90;99.90;17.90;97094.00;;;;5031731;28;20199;-84
2022/06/05 01:26:19;;;;;;;8.90;4.70;;;16.80;99.90;17.90;97102.00;;;;5029601;28;20216;-84
2022/06/05 01:29:12;;;;;;;6.40;3.83;;;16.80;99.90;17.80;97105.00;;;;5029663;28;20209;-84
2022/06/05 01:32:09;;;;;;;6.20;4.97;;;16.80;99.90;18.20;97095.00;;;;5029274;28;20200;-84
2022/06/05 01:35:06;;;;;;;5.17;4.23;;;16.80;99.90;18.30;97100.00;;;;5037340;28;20216;-85
2022/06/05 01:38:01;;;;;;;5.77;4.23;;;16.80;99.90;18.40;97099.00;;;;5032206;28;20212;-85
2022/06/05 01:40:54;;;;;;;5.73;4.10;;;16.90;99.90;18.40;97098.00;;;;5036832;28;20197;-86
2022/06/05 01:43:48;;;;;;;6.70;4.57;;;16.90;99.90;18.40;97099.00;;;;5030429;28;20267;-84
2022/06/05 01:46:39;;;;;;;13.47;4.50;;;16.90;99.90;18.40;97101.00;;;;5025835;28;20635;-85
2022/06/05 01:49:37;;;;;;;4.43;3.93;;;16.90;99.90;18.40;97091.00;;;;5027015;28;20336;-84
2022/06/05 01:52:32;;;;;;;4.93;3.57;;;17.00;99.90;18.40;97088.00;;;;5031151;28;20678;-84
2022/06/05 01:55:26;;;;;;;4.97;4.23;;;17.00;99.90;18.30;97096.00;;;;5030376;28;20245;-86
2022/06/05 01:58:19;;;;;;;4.40;3.80;;;17.00;99.90;18.30;97089.00;;;;5030675;28;20201;-85
2022/06/05 02:01:15;;;;;;;10.13;4.17;;;16.90;99.90;18.20;97093.00;;;;5030610;28;20616;-85
2022/06/05 02:04:11;;;;;;;5.20;4.23;;;16.90;99.90;18.40;97084.00;;;;5030949;28;20205;-85
2022/06/05 02:07:05;;;;;;;6.40;3.87;;;17.60;99.90;18.30;97087.00;;;;5029790;28;20197;-87
2022/06/05 02:10:01;;;;;;;4.67;4.17;;;16.90;99.90;18.10;97092.00;;;;5035546;28;20667;-86
2022/06/05 02:12:50;;;;;;;6.93;4.60;;;16.90;99.90;18.00;97092.00;;;;5030468;28;20197;-84
2022/06/05 02:15:39;;;;;;;6.00;3.80;;;16.90;99.90;18.00;97090.00;;;;5033433;28;20220;-86
2022/06/05 02:18:29;;;;;;;11.30;8.80;;;16.80;99.90;17.80;97088.00;;;;5028440;28;20212;-85
2022/06/05 02:21:19;;;;;;;4.93;4.17;;;16.80;99.90;18.00;97083.00;;;;5031482;28;20209;-85
2022/06/05 02:24:11;;;;;;;4.40;4.00;;;16.80;99.90;18.00;97083.00;;;;5030495;28;20197;-87
2022/06/05 02:27:01;;;;;;;4.67;3.90;;;16.70;99.90;18.00;97084.00;;;;5028616;28;20201;-85
2022/06/05 02:29:50;;;;;;;5.23;3.77;;;16.70;99.90;17.80;97075.00;;;;5026918;28;20229;-85
2022/06/05 02:32:54;;;;;;;6.30;3.90;;;16.70;99.90;17.90;97081.00;;;;5023045;28;20209;-85
2022/06/05 02:35:54;;;;;;;7.00;4.27;;;16.70;99.90;17.80;97091.00;;;;5029457;28;20223;-85
2022/06/05 02:38:58;;;;;;;3.80;3.50;;;16.60;99.90;17.80;97080.00;;;;5037262;28;20209;-86
2022/06/05 02:41:57;;;;;;;5.20;4.03;;;16.60;99.90;17.80;97079.00;;;;5022575;28;20207;-86
2022/06/05 02:44:54;;;;;;;4.43;3.90;;;16.60;99.90;17.70;97088.00;;;;5030165;28;20225;-85
2022/06/05 02:48:02;;;;;;;4.20;3.80;;;16.60;99.90;17.60;97092.00;;;;5031878;28;20717;-86
2022/06/05 02:51:02;;;;;;;6.93;4.37;;;16.50;99.90;17.70;97097.00;;;;5027604;28;20225;-86
2022/06/05 02:53:54;;;;;;;5.20;4.03;;;16.50;99.90;17.50;97089.00;;;;5033737;28;20208;-88
2022/06/05 02:56:43;;;;;;;5.20;4.10;;;16.50;99.90;17.30;97081.00;;;;5036246;28;20213;-86
2022/06/05 02:59:32;;;;;;;4.67;4.23;;;16.40;99.90;17.40;97095.00;;;;5036863;28;20208;-86
2022/06/05 03:05:27;;;;;;;6.77;4.60;;;16.40;99.90;17.60;97078.00;;;;5035104;28;20228;-86
2022/06/05 03:08:21;;;;;;;6.20;4.00;;;16.30;99.90;17.70;97077.00;;;;5036036;28;20201;-86
2022/06/05 03:11:09;;;;;;;4.77;4.30;;;16.40;99.90;17.50;97075.00;;;;5041099;28;20224;-87
2022/06/05 03:13:58;;;;;;;9.23;7.03;;;16.30;99.90;17.30;97074.00;;;;5041145;28;20206;-87
2022/06/05 03:16:47;;;;;;;6.67;5.97;;;16.30;99.90;17.20;97075.00;;;;5034644;28;20197;-85
2022/06/05 03:19:36;;;;;;;18.37;9.10;;;16.20;99.90;17.10;97077.00;;;;5031964;28;20197;-85
2022/06/05 03:22:26;;;;;;;9.80;8.10;;;16.20;99.90;17.20;97078.00;;;;5030893;28;20201;-86
2022/06/05 03:25:21;;;;;;;12.30;6.47;;;16.20;99.90;17.40;97080.00;;;;5039608;28;20247;-85
2022/06/05 03:28:11;;;;;;;8.27;6.37;;;16.20;99.90;17.40;97073.00;;;;5037502;28;20701;-85
2022/06/05 03:31:04;;;;;;;7.40;5.20;;;16.20;99.90;17.40;97068.00;;;;5035148;28;20221;-86
2022/06/05 03:33:53;;;;;;;7.27;4.23;;;16.20;99.90;17.50;97066.00;;;;5033541;28;20193;-87
2022/06/05 03:36:41;;;;;;;5.40;4.90;;;16.20;99.90;17.60;97073.00;;;;5040757;28;20200;-87
2022/06/05 03:39:31;;;;;;;4.23;3.50;;;16.20;99.90;17.60;97069.00;;;;5035023;28;20209;-85
2022/06/05 03:42:21;;;;;;;5.10;4.33;;;16.20;99.90;17.50;97071.00;;;;5034163;28;20209;-86
2022/06/05 03:45:13;;;;;;;6.73;4.17;;;16.20;99.90;17.40;97073.00;;;;5036021;28;20221;-84
2022/06/05 03:48:02;;;;;;;11.50;4.57;;;16.20;99.90;17.10;97074.00;;;;5029490;28;20206;-85
2022/06/05 03:50:51;;;;;;;4.57;4.17;;;16.20;99.90;17.00;97065.00;;;;5034840;28;20229;-86
2022/06/05 03:53:40;;;;;;;6.63;4.23;;;16.10;99.90;17.30;97072.00;;;;5037680;28;20210;-85
2022/06/05 03:56:30;;;;;;;12.17;3.80;;;16.10;99.90;17.40;97068.00;;;;5035881;28;20204;-84
2022/06/05 03:59:21;;;;;;;6.00;4.50;;;16.10;99.90;17.50;97068.00;;;;5038536;28;20204;-86
2022/06/05 04:02:09;;;;;;;4.37;3.80;;;16.20;99.90;17.50;97062.00;;;;5034982;28;20580;-85
2022/06/05 04:05:00;;;;;;;5.37;4.43;;;16.20;99.90;17.70;97059.00;;;;5035295;28;20576;-86
2022/06/05 04:07:49;;;;;;;5.57;3.80;;;16.20;99.90;17.70;97050.00;;;;5019298;28;20214;-86
2022/06/05 04:10:38;;;;;;;4.30;3.60;;;16.30;99.90;17.30;97047.00;;;;5031972;28;20221;-85
2022/06/05 04:13:29;;;;;;;6.33;4.13;;;16.30;99.90;17.30;97052.00;;;;5026842;28;20609;-85
2022/06/05 04:16:22;;;;;;;8.33;4.80;;;16.20;99.90;17.00;97049.00;;;;5022665;28;20201;-86
2022/06/05 04:19:11;;;;;;;7.87;5.73;;;16.20;99.90;17.10;97051.00;;;;5029164;28;20201;-85
2022/06/05 04:22:00;;;;;;;5.93;5.30;;;16.10;99.90;17.50;97042.00;;;;5036552;28;20202;-86
2022/06/05 04:24:49;;;;;;;9.13;5.03;;;16.20;99.90;17.40;97042.00;;;;5035831;28;20221;-86
2022/06/05 04:27:38;;;;;;;11.73;5.83;;;16.20;99.90;17.40;97043.00;;;;5030538;28;20208;-85
2022/06/05 04:30:27;;;;;;;5.70;5.20;;;16.30;99.90;17.60;97036.00;;;;5017318;28;20234;-87
2022/06/05 04:33:18;;;;;;;6.73;4.53;;;16.30;99.90;17.60;97029.00;;;;5027541;28;20201;-85
2022/06/05 04:36:07;;;;;;;4.63;4.17;;;16.40;99.90;17.70;97030.00;;;;5027354;28;20492;-85
2022/06/05 04:38:57;;;;;;;4.50;4.10;;;16.40;99.90;17.50;97022.00;;;;5030145;28;20675;-84
2022/06/05 04:41:46;;;;;;;5.57;4.17;;;16.50;99.90;17.60;97031.00;;;;5028753;28;20202;-85
2022/06/05 04:44:35;;;;;;;9.33;4.20;;;16.50;99.90;17.70;97025.00;;;;5031748;28;20218;-86
2022/06/05 04:47:24;;;;;;;5.17;4.70;;;16.50;99.90;18.00;97023.00;;;;5029063;28;20574;-85
2022/06/05 04:50:14;;;;;;;8.30;4.17;;;16.60;99.90;18.00;97014.00;;;;5028867;28;20691;-86
2022/06/05 04:53:03;;;;;;;4.93;4.33;;;16.70;99.90;18.00;97012.00;;;;5029955;28;20205;-84
2022/06/05 04:55:52;;;;;;;4.00;3.70;;;16.80;99.90;18.00;97010.00;;;;5025253;28;20209;-85
2022/06/05 04:58:42;;;;;;;6.73;4.30;;;16.80;99.90;18.00;97011.00;;;;5024551;28;20201;-85
2022/06/05 05:01:35;;;;;;;4.70;4.10;;;16.90;99.90;18.20;97010.00;;;;5030961;28;20189;-84
2022/06/05 05:04:24;;;;;;;9.00;4.70;;;16.70;99.90;18.40;97012.00;;;;5032660;28;20505;-84
2022/06/05 05:07:14;;;;;;;7.53;5.17;;;17.00;99.90;18.70;96999.00;;;;5021835;28;20201;-85
2022/06/05 05:10:08;;;;;;;4.63;4.07;;;17.20;99.90;18.60;97000.00;;;;5028925;28;20198;-85
2022/06/05 05:12:56;;;;;;;7.57;4.70;;;17.30;99.90;18.90;97005.00;;;;5030911;28;20208;-85
2022/06/05 05:15:50;;;;;;;5.43;4.43;;;17.40;99.90;18.80;97001.00;;;;5025394;28;20717;-86
2022/06/05 05:18:39;;;;;;;9.20;5.70;;;17.50;99.90;18.90;97002.00;;;;5029726;28;20675;-85
2022/06/05 05:21:28;;;;;;;6.63;4.43;;;17.60;99.90;19.00;96992.00;;;;5038173;28;20204;-86
2022/06/05 05:24:19;;;;;;;7.17;4.27;;;17.60;99.90;19.00;96997.00;;;;5026408;28;20236;-85
2022/06/05 05:27:07;;;;;;;5.37;4.80;;;17.70;99.90;19.10;97002.00;;;;5028719;28;20245;-84
2022/06/05 05:29:56;;;;;;;7.20;4.83;;;17.80;99.90;19.20;96992.00;;;;5030202;28;20607;-87
2022/06/05 05:32:45;;;;;;;8.23;5.80;;;17.90;99.90;19.40;96992.00;;;;5030676;28;20221;-85
2022/06/05 05:35:34;;;;;;;7.63;5.43;;;18.00;99.90;19.60;97001.00;;;;5032200;28;20243;-86
2022/06/05 05:38:22;;;;;;;6.07;5.47;;;18.10;99.90;19.70;96990.00;;;;5024182;28;20833;-86
2022/06/05 05:44:20;;;;;;;8.27;5.47;;;18.40;99.90;20.10;96980.00;;;;5029483;28;20248;-85
2022/06/05 05:47:14;;;;;;;10.00;6.10;;;18.60;99.90;20.10;96984.00;;;;5026974;28;20700;-86
2022/06/05 05:50:10;;;;;;;7.47;6.13;;;18.70;99.90;20.30;96988.00;;;;5034585;28;20535;-85
2022/06/05 05:52:59;;;;;;;8.87;6.10;;;18.80;99.90;20.80;96996.00;;;;5032989;28;20197;-86
2022/06/05 05:55:48;;;;;;;15.43;7.20;;;19.00;99.90;20.90;96992.00;;;;5032720;28;20228;-84
2022/06/05 05:58:40;;;;;;;10.07;7.63;;;19.10;99.90;21.00;97000.00;;;;5030744;28;20209;-85
2022/06/05 06:01:29;;;;;;;9.87;7.67;;;19.30;99.90;21.10;96990.00;;;;5021621;28;20201;-84
2022/06/05 06:04:18;;;;;;;11.83;8.60;;;19.40;99.90;21.10;96990.00;;;;5033421;28;20221;-85
2022/06/05 06:07:07;;;;;;;9.60;8.27;;;19.60;99.90;21.30;96989.00;;;;5033795;28;20209;-84
2022/06/05 06:09:56;;;;;;;8.90;7.60;;;19.70;99.90;21.40;96985.00;;;;5037815;28;20201;-85
2022/06/05 06:12:45;;;;;;;9.70;7.83;;;19.70;99.90;21.50;96978.00;;;;5029320;28;20617;-86
2022/06/05 06:15:35;;;;;;;13.47;8.73;;;19.90;99.90;21.40;96974.00;;;;5029127;28;20617;-85
2022/06/05 06:18:24;;;;;;;9.33;8.13;;;19.90;99.90;21.70;96974.00;;;;5029961;28;20205;-87
2022/06/05 06:21:13;;;;;;;12.63;8.50;;;20.00;99.90;21.70;96991.00;;;;5027351;28;20212;-84
2022/06/05 06:24:02;;;;;;;10.50;8.63;;;20.10;99.90;21.80;97001.00;;;;5031761;28;20193;-86
2022/06/05 06:26:51;;;;;;;11.80;7.73;;;20.20;99.90;21.90;97006.00;;;;5029511;28;20204;-85
2022/06/05 06:29:40;;;;;;;10.83;8.50;;;20.40;99.90;21.80;96997.00;;;;5030895;28;20618;-86
2022/06/05 06:32:30;;;;;;;9.57;8.67;;;20.40;99.90;22.10;97007.00;;;;5031027;28;20223;-83
2022/06/05 06:35:19;;;;;;;12.40;9.50;;;20.50;99.90;22.50;97019.00;;;;5019177;28;20221;-85
2022/06/05 06:38:07;;;;;;;13.03;9.20;;;20.60;99.90;22.70;97019.00;;;;5031997;28;20208;-84
2022/06/05 06:41:02;;;;;;;14.03;8.93;;;20.80;99.90;23.00;97012.00;;;;5030954;28;20189;-85
2022/06/05 06:43:51;;;;;;;12.23;8.10;;;20.90;99.90;23.20;97027.00;;;;5030558;28;20602;-85
2022/06/05 06:46:40;;;;;;;10.13;7.83;;;21.10;99.90;23.40;97021.00;;;;5026904;28;20279;-85
2022/06/05 06:49:30;;;;;;;11.60;9.23;;;21.30;99.90;23.40;97017.00;;;;5034518;28;20577;-87
2022/06/05 06:52:19;;;;;;;11.33;9.13;;;21.40;99.90;23.70;97020.00;;;;5033243;28;20221;-85
2022/06/05 06:55:11;;;;;;;14.03;8.93;;;21.60;99.90;24.00;97025.00;;;;5033030;28;20233;-87
2022/06/05 06:58:00;;;;;;;11.33;8.37;;;21.80;99.90;24.20;97029.00;;;;5037747;28;20668;-86
2022/06/05 07:00:49;;;;;;;15.40;8.93;;;21.90;99.90;24.10;97025.00;;;;5038075;28;20212;-86
2022/06/05 07:03:38;;;;;;;10.30;8.80;;;22.10;99.90;24.10;97021.00;;;;5034932;28;20208;-86
2022/06/05 07:06:29;;;;;;;11.47;8.83;;;22.20;99.90;24.40;97023.00;;;;5031856;28;20667;-85
2022/06/05 07:09:18;;;;;;;8.07;7.27;;;22.30;99.90;24.60;97025.00;;;;5025969;28;20569;-85
2022/06/05 07:12:08;;;;;;;9.70;8.60;;;22.40;99.90;24.70;97020.00;;;;5031608;28;20713;-86
2022/06/05 07:14:56;;;;;;;12.80;8.60;;;22.60;99.90;25.00;97015.00;;;;5032227;28;20225;-85
2022/06/05 07:17:45;;;;;;;9.63;7.93;;;22.80;99.90;25.20;97004.00;;;;5020770;28;20583;-85
2022/06/05 07:20:36;;;;;;;9.03;8.13;;;22.90;99.90;25.20;96998.00;;;;5030949;28;20589;-86
2022/06/05 07:23:26;;;;;;;10.70;8.40;;;23.10;99.90;25.20;97002.00;;;;5034812;28;20217;-86
2022/06/05 07:26:17;;;;;;;10.13;8.40;;;23.20;99.90;25.30;97005.00;;;;5034202;28;20602;-85
2022/06/05 07:29:06;;;;;;;9.03;7.97;;;23.30;99.90;25.20;97011.00;;;;5032828;28;20205;-84
2022/06/05 07:31:57;;;;;;;10.17;7.97;;;23.40;99.90;25.20;97009.00;;;;5033913;28;20235;-86
2022/06/05 07:34:46;;;;;;;7.20;6.50;;;23.40;99.90;24.50;97012.00;;;;5031043;28;20674;-84
2022/06/05 07:37:35;;;;;;;6.93;5.87;;;23.30;99.90;24.60;97005.00;;;;5034727;28;20687;-86
2022/06/05 07:40:31;;;;;;;8.90;6.77;;;23.10;99.90;25.00;96976.00;;;;5033541;28;20238;-86
2022/06/05 07:43:21;;;;;;;5.40;4.90;;;23.10;99.90;25.10;96984.00;;;;5032885;28;20200;-87
2022/06/05 07:46:10;;;;;;;7.23;5.60;;;23.10;99.90;25.30;96977.00;;;;5032902;28;20233;-87
2022/06/05 07:48:59;;;;;;;7.50;6.03;;;23.10;99.90;24.90;96977.00;;;;5036677;28;20202;-85
2022/06/05 07:54:51;;;;;;;8.43;6.07;;;23.20;99.90;24.70;96967.00;;;;5006565;28;20237;-84
2022/06/05 07:57:41;;;;;;;8.43;6.27;;;23.20;99.90;24.80;96975.00;;;;5035311;28;20679;-87
2022/06/05 08:00:31;;;;;;;6.97;6.27;;;23.30;99.90;25.40;96982.00;;;;5036390;28;20201;-86
2022/06/05 08:03:20;;;;;;;5.63;4.93;;;23.30;99.90;25.30;96981.00;;;;5026003;28;20213;-85
2022/06/05 08:06:09;;;;;;;12.27;6.63;;;23.40;99.90;24.10;96975.00;;;;5029878;28;20213;-85
2022/06/05 08:08:59;;;;;;;7.93;5.87;;;23.30;99.90;25.10;96973.00;;;;5022207;28;20225;-85
2022/06/05 08:11:48;;;;;;;7.23;6.20;;;23.30;99.90;25.50;96968.00;;;;5019590;28;20217;-86
2022/06/05 08:14:39;;;;;;;9.20;7.37;;;23.40;99.90;25.00;96966.00;;;;5019574;28;20233;-84
2022/06/05 08:17:31;;;;;;;7.97;5.60;;;23.50;99.90;24.50;96970.00;;;;5018087;28;20209;-85
2022/06/05 08:20:20;;;;;;;6.17;5.57;;;23.50;99.90;25.10;96959.00;;;;5014985;28;20687;-85
2022/06/05 08:23:09;;;;;;;6.30;5.70;;;23.50;99.90;26.00;96970.00;;;;5019857;28;20201;-86
2022/06/05 08:25:58;;;;;;;7.43;5.40;;;23.60;99.90;26.60;96964.00;;;;5020913;28;20229;-86
2022/06/05 08:28:47;;;;;;;8.33;3.73;;;23.90;99.90;26.50;96973.00;;;;5021360;28;20209;-86
2022/06/05 08:31:38;;;;;;;3.50;3.20;;;24.20;99.90;26.50;96972.00;;;;5013091;28;20206;-86
2022/06/05 08:34:27;;;;;;;2.90;2.63;;;24.30;99.90;26.60;96976.00;;;;5018637;28;20232;-85
2022/06/05 08:43:45;;;;;;;3.63;3.33;;;24.60;99.90;26.30;96973.00;;;;5012750;28;20201;-85
2022/06/05 08:46:42;;;;;;;6.97;3.53;;;24.50;99.90;25.80;96981.00;;;;5013618;28;20198;-86
2022/06/05 08:49:45;;;;;;;9.43;3.13;;;24.50;99.90;26.30;96973.00;;;;5023474;28;20202;-86
2022/06/05 08:52:43;;;;;;;9.10;3.27;;;24.40;99.90;26.60;96969.00;;;;5022557;28;20225;-86
2022/06/05 08:55:40;;;;;;;7.57;3.57;;;24.50;99.90;26.10;96990.00;;;;5019877;28;20313;-88
2022/06/05 08:58:49;;;;;;;8.43;3.50;;;24.50;99.90;25.70;96982.00;;;;5030053;28;20211;-88
2022/06/05 09:10:13;;;;;;;4.17;3.67;;;24.20;99.90;25.60;96975.00;;;;5018825;28;20208;-86
2022/06/05 09:13:11;;;;;;;4.33;3.10;;;24.00;99.90;25.30;96975.00;;;;5011455;28;20226;-87
2022/06/05 09:16:03;;;;;;;4.50;3.33;;;23.80;99.90;25.20;96980.00;;;;5018239;28;20227;-89
2022/06/05 09:18:54;;;;;;;3.77;3.27;;;23.70;99.90;24.80;96976.00;;;;5014460;28;20209;-87
2022/06/05 09:21:52;;;;;;;4.07;3.73;;;23.60;99.90;24.20;96976.00;;;;5019890;28;20199;-87
2022/06/05 09:25:02;;;;;;;4.30;3.90;;;23.30;99.90;23.10;96980.00;;;;5018020;28;20228;-85
2022/06/05 09:28:20;;;;;;;4.30;3.90;;;23.00;99.90;23.60;96971.00;;;;5016909;28;20208;-86
2022/06/05 09:32:06;;;;;;;6.17;4.10;;;22.60;99.90;23.80;96973.00;;;;5018069;28;20208;-86
2022/06/05 09:35:03;;;;;;;4.00;3.70;;;22.50;99.90;24.10;96963.00;;;;5015506;28;20677;-85
2022/06/05 09:37:58;;;;;;;4.67;4.23;;;22.50;99.90;24.50;96961.00;;;;5020365;28;20205;-86
2022/06/05 09:40:59;;;;;;;6.00;4.73;;;22.60;99.90;24.40;96972.00;;;;5013783;28;20578;-86
2022/06/05 09:43:58;;;;;;;6.23;4.87;;;22.70;99.90;24.30;96967.00;;;;5017997;28;20216;-84
2022/06/05 09:46:59;;;;;;;7.63;5.03;;;22.70;99.90;24.10;96973.00;;;;5023475;28;20295;-84
2022/06/05 09:49:55;;;;;;;6.80;4.30;;;22.70;99.90;23.80;96972.00;;;;5025470;28;20279;-85
2022/06/05 09:52:45;;;;;;;6.20;5.20;;;22.60;99.90;23.70;96976.00;;;;5018866;28;20540;-85
2022/06/05 09:55:51;;;;;;;7.13;5.03;;;22.50;99.90;23.80;96979.00;;;;5021416;28;20221;-86
2022/06/05 09:58:52;;;;;;;5.90;5.40;;;22.40;99.90;23.80;96978.00;;;;5024430;28;20209;-87
2022/06/05 10:01:51;;;;;;;4.67;4.27;;;22.30;99.90;23.90;96973.00;;;;5017853;28;20205;-85
2022/06/05 10:04:41;;;;;;;5.40;4.77;;;22.30;99.90;23.70;96980.00;;;;5021116;28;20271;-86
2022/06/05 10:07:56;;;;;;;9.77;6.93;;;22.30;99.90;23.80;96976.00;;;;5021838;28;20284;-85
2022/06/05 10:10:46;;;;;;;5.30;4.70;;;22.30;99.90;24.00;96971.00;;;;5017261;28;20204;-85
2022/06/05 10:13:48;;;;;;;5.93;4.60;;;22.30;99.90;24.00;96972.00;;;;5014373;28;20719;-85
2022/06/05 10:16:47;;;;;;;8.17;3.73;;;22.30;99.90;23.80;96968.00;;;;5025330;28;20220;-81
2022/06/05 10:20:00;;;;;;;5.03;4.50;;;22.30;99.90;24.20;96977.00;;;;5020488;28;20209;-84
2022/06/05 10:22:58;;;;;;;6.10;5.27;;;22.40;99.90;24.20;96967.00;;;;5025416;28;20694;-83
2022/06/05 10:25:56;;;;;;;6.40;4.10;;;22.40;99.90;24.10;96968.00;;;;5027030;28;20608;-82
2022/06/05 10:28:47;;;;;;;5.47;4.10;;;22.40;99.90;24.10;96958.00;;;;5024974;28;20205;-85
2022/06/05 10:31:38;;;;;;;5.63;4.67;;;22.40;99.90;24.10;96961.00;;;;5025996;28;20244;-85
2022/06/05 10:34:39;;;;;;;6.03;4.57;;;22.40;99.90;24.00;96962.00;;;;5026730;28;20228;-84
2022/06/05 10:37:35;;;;;;;5.20;4.20;;;22.40;99.90;24.00;96955.00;;;;5024025;28;20212;-85
2022/06/05 10:40:34;;;;;;;5.67;4.50;;;22.40;99.90;24.20;96951.00;;;;5026964;28;20197;-87
2022/06/05 10:43:26;;;;;;;4.13;3.83;;;22.40;99.90;24.30;96939.00;;;;5023583;28;20209;-86
2022/06/05 10:46:22;;;;;;;4.57;4.17;;;22.40;99.90;24.50;96933.00;;;;5024912;28;20225;-85
2022/06/05 10:49:18;;;;;;;5.67;4.00;;;22.50;99.90;24.70;96934.00;;;;5025061;28;20254;-86
2022/06/05 10:52:20;;;;;;;6.00;4.03;;;22.60;99.90;24.80;96931.00;;;;5026066;28;20208;-86
2022/06/05 10:55:32;;;;;;;4.50;4.07;;;22.80;99.90;24.40;96928.00;;;;5027896;28;20243;-86
2022/06/05 10:58:27;;;;;;;6.47;4.60;;;22.80;99.90;25.10;96922.00;;;;5023220;28;20198;-88
2022/06/05 11:01:40;;;;;;;6.53;4.50;;;23.00;99.90;25.00;96928.00;;;;5027989;28;20197;-86
2022/06/05 11:04:48;;;;;;;4.07;3.70;;;23.10;99.90;25.40;96919.00;;;;5025450;28;20213;-85
2022/06/05 11:07:52;;;;;;;5.50;4.27;;;23.20;99.90;25.50;96920.00;;;;5030891;28;20201;-87
2022/06/05 11:14:23;;;;;;;4.67;4.27;;;23.30;99.90;25.10;96923.00;;;;5026351;28;20221;-87
2022/06/05 11:17:31;;;;;;;4.13;3.73;;;23.30;99.90;24.80;96919.00;;;;5025863;28;20202;-87
2022/06/05 11:20:23;;;;;;;4.33;3.83;;;23.30;99.90;24.80;96921.00;;;;5026759;28;20213;-87
2022/06/05 11:23:19;;;;;;;7.03;4.23;;;23.20;99.90;24.10;96912.00;;;;5027673;28;20553;-88
2022/06/05 11:26:21;;;;;;;5.57;4.30;;;23.00;99.90;24.30;96912.00;;;;5028710;28;20229;-86
2022/06/05 11:29:25;;;;;;;6.73;4.90;;;22.90;99.90;24.60;96911.00;;;;5033675;28;20311;-88
2022/06/05 11:32:40;;;;;;;4.03;3.60;;;22.90;99.90;24.80;96907.00;;;;5025535;28;20209;-88
2022/06/05 11:35:42;;;;;;;3.97;3.60;;;22.90;99.90;24.80;96902.00;;;;5026063;28;20233;-88
2022/06/05 11:38:46;;;;;;;4.87;4.17;;;22.90;99.90;24.90;96903.00;;;;5024711;28;20287;-87
2022/06/05 11:41:45;;;;;;;5.53;4.40;;;23.00;99.90;25.00;96893.00;;;;5029194;28;20204;-87
2022/06/05 11:44:39;;;;;;;4.53;4.13;;;23.00;99.90;24.70;96892.00;;;;5018437;28;20221;-87
2022/06/05 11:47:41;;;;;;;5.10;3.70;;;23.10;99.90;24.70;96888.00;;;;5026274;28;20728;-87
2022/06/05 11:50:49;;;;;;;6.67;4.07;;;23.10;99.90;24.80;96886.00;;;;5025350;28;20209;-87
2022/06/05 11:53:50;;;;;;;4.83;4.37;;;23.10;99.90;24.80;96878.00;;;;5024277;28;20702;-87
2022/06/05 11:57:14;;;;;;;6.13;4.43;;;23.10;99.90;24.90;96874.00;;;;5019753;28;20232;-87
2022/06/05 12:00:15;;;;;;;5.17;4.67;;;23.10;99.90;25.00;96876.00;;;;5021377;28;20208;-87
2022/06/05 12:03:12;;;;;;;4.47;3.97;;;23.10;99.90;24.80;96869.00;;;;5017755;28;20206;-86
2022/06/05 12:06:11;;;;;;;5.00;4.47;;;23.10;99.90;24.70;96874.00;;;;5020645;28;20237;-85
2022/06/05 12:09:05;;;;;;;10.17;5.07;;;23.10;99.90;24.40;96870.00;;;;5020648;28;20197;-87
2022/06/05 12:12:05;;;;;;;7.63;4.10;;;22.90;99.90;24.50;96862.00;;;;5022029;28;20210;-86
2022/06/05 12:15:05;;;;;;;6.47;4.13;;;22.90;99.90;24.60;96860.00;;;;5018065;28;20228;-87
2022/06/05 12:18:01;;;;;;;4.90;4.37;;;22.80;99.90;24.60;96852.00;;;;5017815;28;20214;-86
2022/06/05 12:20:58;;;;;;;5.20;3.73;;;22.80;99.90;24.40;96846.00;;;;5020683;28;20206;-85
2022/06/05 12:23:56;;;;;;;6.30;5.13;;;22.80;99.90;24.30;96854.00;;;;5028548;28;20206;-87
2022/06/05 12:26:52;;;;;;;4.77;4.30;;;22.70;99.90;24.30;96849.00;;;;5016739;28;20211;-86
2022/06/05 12:29:50;;;;;;;9.63;4.40;;;22.70;99.90;24.20;96847.00;;;;5021643;28;20202;-87
2022/06/05 12:32:57;;;;;;;6.93;3.50;;;22.60;99.90;24.20;96847.00;;;;5016568;28;20217;-86
2022/06/05 12:35:52;;;;;;;4.20;3.80;;;22.60;99.90;24.20;96842.00;;;;5020241;28;20756;-86
2022/06/05 12:38:53;;;;;;;6.43;4.60;;;22.60;99.90;24.10;96846.00;;;;5022130;28;20198;-86
2022/06/05 12:41:50;;;;;;;5.97;4.23;;;22.50;99.90;24.10;96836.00;;;;5021161;28;20520;-87
2022/06/05 12:44:47;;;;;;;4.40;4.10;;;22.50;99.90;24.10;96833.00;;;;5015630;28;20624;-86
2022/06/05 12:48:03;;;;;;;4.33;3.97;;;22.40;99.90;24.10;96829.00;;;;5012873;28;20683;-86
2022/06/05 12:51:00;;;;;;;4.57;4.17;;;22.40;99.90;24.00;96834.00;;;;5018274;28;20550;-86
2022/06/05 12:53:56;;;;;;;4.43;3.97;;;22.40;99.90;24.00;96831.00;;;;5018848;28;20233;-85
2022/06/05 12:56:50;;;;;;;7.43;5.10;;;22.30;99.90;24.00;96829.00;;;;5016599;28;20209;-83
2022/06/05 12:59:48;;;;;;;5.77;4.93;;;22.30;99.90;23.90;96831.00;;;;5021763;28;20205;-83
2022/06/05 13:02:46;;;;;;;6.27;4.90;;;22.30;99.90;23.90;96825.00;;;;5020123;28;20197;-84
2022/06/05 13:05:43;;;;;;;6.90;4.43;;;22.30;99.90;23.90;96815.00;;;;5020217;28;20237;-85
2022/06/05 13:08:43;;;;;;;6.87;5.30;;;22.30;99.90;23.80;96813.00;;;;5019136;28;20210;-84
2022/06/05 13:11:41;;;;;;;5.97;4.77;;;22.20;99.90;23.80;96802.00;;;;5018697;28;20221;-83
2022/06/05 13:14:48;;;;;;;9.03;4.93;;;22.20;99.90;23.90;96790.00;;;;5018651;28;20222;-86
2022/06/05 13:17:47;;;;;;;6.80;5.23;;;22.20;99.90;24.00;96789.00;;;;5023402;28;20579;-85
2022/06/05 13:20:41;;;;;;;6.23;5.03;;;22.20;99.90;24.00;96779.00;;;;5027539;28;20201;-85
2022/06/05 13:23:38;;;;;;;6.27;5.67;;;22.30;99.90;24.10;96777.00;;;;5026720;28;20211;-84